^^
Station Historical Data
Daily Summary for January 10, 2017 Units:  Metric    English   Both
« Previous Day
Next Day »
Daily Weekly Monthly Yearly Custom
  High: Low: Average:
Temperature: 37.7 °C 20.7 °C 27.1 °C
Dew Point: 15.9 °C 5.2 °C 11 °C
Humidity: 52% 21% 38%
Wind Speed: 32km/h 0km/h 6.3km/h
Wind Gust: 41.8km/h - -
Wind- - SSW
Pressure: 1006.3 hPa 999.5 hPa -
Precipitation: 0 mm    
Historical Graphs
 
 
Tabular Data for January 10, 2017
Time Temperature Dew Point Pressure Wind Wind Speed Wind Gust Humidity Rainfall Rate (Hourly) solar Conditions
00:02 24.9 °C 11.1 °C 1005.3 hPa SSW 13 km/h 20.9 km/h 42% 0 mm 0.0 W/m2
00:12 25.1 °C 10.9 °C 1005.3 hPa SSW 16.3 km/h 19.3 km/h 41% 0 mm 0.0 W/m2
00:17 24.9 °C 10.7 °C 1005.3 hPa SSW 11.1 km/h 20.9 km/h 41% 0 mm 0.0 W/m2
00:22 24.9 °C 10.7 °C 1005.3 hPa SW 11.1 km/h 19.3 km/h 41% 0 mm 0.0 W/m2
00:28 24.9 °C 10.7 °C 1006 hPa Calm   4.8 km/h 41% 0 mm 0.0 W/m2
00:33 25 °C 10.8 °C 1006.3 hPa Calm   8 km/h 41% 0 mm 0.0 W/m2
00:43 25.1 °C 10.6 °C 1005 hPa SW 9.7 km/h 17.7 km/h 40% 0 mm 0.0 W/m2
00:58 25.1 °C 10.9 °C 1005 hPa SW 19.5 km/h 20.9 km/h 41% 0 mm 0.0 W/m2
01:03 24.8 °C 10.3 °C 1005 hPa SW 7.9 km/h 14.5 km/h 40% 0 mm 0.0 W/m2
01:08 24.8 °C 10.7 °C 1005.3 hPa Calm     41% 0 mm 0.0 W/m2
01:13 24.7 °C 10.6 °C 1005.6 hPa Calm     41% 0 mm 0.0 W/m2
01:18 24.7 °C 10.6 °C 1005.6 hPa Calm     41% 0 mm 0.0 W/m2
01:23 24.7 °C 10.6 °C 1005.6 hPa Calm     41% 0 mm 0.0 W/m2
01:33 24.5 °C 10.7 °C 1005.3 hPa Calm     42% 0 mm 0.0 W/m2
01:38 24.3 °C 10.6 °C 1005.3 hPa Calm     42% 0 mm 0.0 W/m2
01:53 24.1 °C 10.7 °C 1005 hPa Calm     43% 0 mm 0.0 W/m2
01:59 23.9 °C 10.6 °C 1005 hPa Calm     43% 0 mm 0.0 W/m2
02:04 23.7 °C 10.7 °C 1005 hPa Calm     44% 0 mm 0.0 W/m2
02:09 23.6 °C 10.6 °C 1005 hPa Calm     44% 0 mm 0.0 W/m2
02:20 23.3 °C 10.7 °C 1004.6 hPa Calm     45% 0 mm 0.0 W/m2
02:30 23.1 °C 10.5 °C 1004.3 hPa Calm     45% 0 mm 0.0 W/m2
02:35 23.1 °C 10.8 °C 1004.3 hPa Calm     46% 0 mm 0.0 W/m2
02:40 22.9 °C 10.7 °C 1003.9 hPa Calm     46% 0 mm 0.0 W/m2
02:45 22.7 °C 10.8 °C 1004.3 hPa Calm     47% 0 mm 0.0 W/m2
02:50 22.5 °C 10.6 °C 1003.9 hPa Calm     47% 0 mm 0.0 W/m2
02:55 22.4 °C 10.5 °C 1003.9 hPa SW 6.4 km/h 11.3 km/h 47% 0 mm 0.0 W/m2
03:01 22.4 °C 10.5 °C 1004.3 hPa Calm     47% 0 mm 0.0 W/m2
03:16 22.7 °C 10.5 °C 1004.3 hPa Calm     46% 0 mm 0.0 W/m2
03:26 22.7 °C 10.8 °C 1003.9 hPa Calm     47% 0 mm 0.0 W/m2
03:31 22.6 °C 10.7 °C 1003.9 hPa Calm     47% 0 mm 0.0 W/m2
03:36 22.4 °C 10.5 °C 1003.9 hPa Calm     47% 0 mm 0.0 W/m2
03:41 22.4 °C 10.5 °C 1003.9 hPa Calm     47% 0 mm 0.0 W/m2
03:47 22.3 °C 10.4 °C 1003.6 hPa Calm     47% 0 mm 0.0 W/m2
03:57 22.1 °C 10.6 °C 1003.6 hPa Calm     48% 0 mm 0.0 W/m2
04:02 22.1 °C 10.9 °C 1003.6 hPa Calm     49% 0 mm 0.0 W/m2
04:07 22 °C 10.5 °C 1003.6 hPa Calm     48% 0 mm 0.0 W/m2
04:13 22 °C 10.5 °C 1003.6 hPa Calm     48% 0 mm 0.0 W/m2
04:19 21.9 °C 10.7 °C 1003.6 hPa Calm     49% 0 mm 0.0 W/m2
04:24 21.8 °C 10.6 °C 1003.9 hPa Calm     49% 0 mm 0.0 W/m2
04:29 21.7 °C 10.5 °C 1003.6 hPa Calm     49% 0 mm 0.0 W/m2
04:34 21.6 °C 10.4 °C 1003.6 hPa Calm     49% 0 mm 0.0 W/m2
04:39 21.5 °C 10.6 °C 1003.6 hPa Calm     50% 0 mm 0.0 W/m2
04:44 21.4 °C 10.2 °C 1003.6 hPa Calm     49% 0 mm 0.0 W/m2
04:50 21.4 °C 10.5 °C 1003.6 hPa Calm     50% 0 mm 0.0 W/m2
04:55 21.4 °C 10.5 °C 1003.6 hPa Calm     50% 0 mm 0.0 W/m2
05:05 21.4 °C 10.5 °C 1003.6 hPa Calm     50% 0 mm 0.0 W/m2
05:21 21.3 °C 10.5 °C 1003.6 hPa Calm     50% 0 mm 0.0 W/m2
05:26 21.2 °C 10.4 °C 1003.6 hPa Calm     50% 0 mm 0.0 W/m2
05:32 21.1 °C 10.6 °C 1003.6 hPa Calm     51% 0 mm 0.0 W/m2
05:37 21.1 °C 10.6 °C 1003.6 hPa Calm     51% 0 mm 0.0 W/m2
05:43 21.1 °C 10.6 °C 1003.6 hPa Calm     51% 0 mm 0.0 W/m2
05:53 21 °C 10.5 °C 1003.9 hPa Calm     51% 0 mm 0.0 W/m2
05:59 20.9 °C 10.4 °C 1003.9 hPa Calm     51% 0 mm 0.0 W/m2
06:02 20.9 °C 10.7 °C 1003.9 hPa Calm     52% 0 mm 0.0 W/m2
06:18 20.7 °C 10.5 °C 1004.3 hPa Calm     52% 0 mm 11.0 W/m2
06:28 20.8 °C 10.6 °C 1004.3 hPa Calm     52% 0 mm 18.0 W/m2
06:38 21.4 °C 10.2 °C 1004.3 hPa Calm     49% 0 mm 32.0 W/m2
06:43 22 °C 10.5 °C 1004.6 hPa Calm     48% 0 mm 56.0 W/m2
06:58 23.8 °C 9.4 °C 1004.6 hPa Calm     40% 0 mm 111.0 W/m2
07:20 25.3 °C 9.2 °C 1004.6 hPa SW 4.7 km/h 9.7 km/h 36% 0 mm 165.0 W/m2
07:35 26.3 °C 9.2 °C 1004.6 hPa NE 6.4 km/h 12.9 km/h 34% 0 mm 229.0 W/m2
07:50 27.1 °C 10.3 °C 1005 hPa NNE 14.3 km/h 20.9 km/h 35% 0 mm 281.0 W/m2
07:59 27.3 °C 10.9 °C 1005 hPa North 6.4 km/h 16.1 km/h 36% 0 mm 336.0 W/m2
08:14 27.3 °C 12.1 °C 1005 hPa North 6.4 km/h 25.7 km/h 39% 0 mm 385.0 W/m2
08:24 27.4 °C 12.6 °C 1005 hPa North 6.4 km/h 24.1 km/h 40% 0 mm 424.0 W/m2
08:54 28.4 °C 13.9 °C 1004.6 hPa NNW 1.4 km/h 17.7 km/h 41% 0 mm 527.0 W/m2
09:16 29 °C 15.5 °C 1004.6 hPa NNW 1.4 km/h 19.3 km/h 44% 0 mm 575.0 W/m2
09:25 29.5 °C 15.6 °C 1004.3 hPa NNW 1.4 km/h 20.9 km/h 43% 0 mm 626.0 W/m2
09:47 30.2 °C 15.9 °C 1004.6 hPa NNW 13 km/h 19.3 km/h 42% 0 mm 671.0 W/m2
09:55 30.5 °C 15.8 °C 1004.6 hPa NNW 9.7 km/h 14.5 km/h 41% 0 mm 714.0 W/m2
10:17 30.7 °C 15.5 °C 1004.3 hPa North 6.4 km/h 16.1 km/h 40% 0 mm 751.0 W/m2
10:31 31 °C 15.8 °C 1004.3 hPa North 11.1 km/h 20.9 km/h 40% 0 mm 789.0 W/m2
10:42 31.1 °C 15.5 °C 1003.9 hPa North 6.4 km/h 19.3 km/h 39% 0 mm 814.0 W/m2
10:56 31.3 °C 15.3 °C 1003.9 hPa NNW 1.4 km/h 8 km/h 38% 0 mm 846.0 W/m2
11:05 31.7 °C 15.2 °C 1003.9 hPa NNW 13 km/h 14.5 km/h 37% 0 mm 865.0 W/m2
11:13 32.1 °C 15.1 °C 1003.6 hPa NNW 3.2 km/h 20.9 km/h 36% 0 mm 886.0 W/m2
14:00 35.9 °C 12.8 °C 1001.9 hPa Calm   6.4 km/h 25% 0 mm 990.0 W/m2
14:14 36.2 °C 12.4 °C 1001.6 hPa Calm     24% 0 mm 963.0 W/m2
14:15 36.1 °C 12.3 °C 1001.6 hPa Calm     24% 0 mm 969.0 W/m2
14:35 35.6 °C 11.9 °C 1001.2 hPa Calm     24% 0 mm 1002.0 W/m2
14:40 36.2 °C 11.8 °C 1001.2 hPa Calm   1.6 km/h 23% 0 mm 984.0 W/m2
14:46 36.7 °C 11.5 °C 1001.2 hPa Calm   11.3 km/h 22% 0 mm 953.0 W/m2
14:54 36.9 °C 12.4 °C 1000.9 hPa Calm   9.7 km/h 23% 0 mm 940.0 W/m2
15:01 37 °C 12.4 °C 1000.6 hPa Calm     23% 0 mm 935.0 W/m2
15:20 37.5 °C 11.5 °C 1000.2 hPa NNW 11.1 km/h 17.7 km/h 21% 0 mm 944.0 W/m2
15:25 37.7 °C 11.6 °C 1000.2 hPa NNW 7.9 km/h 14.5 km/h 21% 0 mm 888.0 W/m2
15:41 36.1 °C 13.6 °C 1000.6 hPa NE 27.4 km/h 35.4 km/h 26% 0 mm 221.0 W/m2
15:50 34.4 °C 12.7 °C 1000.2 hPa ENE 25.9 km/h 30.6 km/h 27% 0 mm 139.0 W/m2
16:11 35.5 °C 11.8 °C 999.9 hPa East 13 km/h 20.9 km/h 24% 0 mm 735.0 W/m2
16:20 36.2 °C 12.4 °C 999.9 hPa East 9.7 km/h 22.5 km/h 24% 0 mm 659.0 W/m2
16:27 36.2 °C 12.4 °C 999.9 hPa East 9.7 km/h 22.5 km/h 24% 0 mm 659.0 W/m2
16:35 36.2 °C 11.8 °C 999.9 hPa East 25.9 km/h 27.4 km/h 23% 0 mm 615.0 W/m2
16:57 36.1 °C 11.7 °C 999.5 hPa East 6.4 km/h 16.1 km/h 23% 0 mm 566.0 W/m2
17:06 35.6 °C 12.5 °C 999.5 hPa ENE 22.7 km/h 22.7 km/h 25% 0 mm 559.0 W/m2
17:27 34.9 °C 12.5 °C 999.5 hPa ENE 24.1 km/h 25.7 km/h 26% 0 mm 105.0 W/m2
17:36 34.1 °C 12.4 °C 999.5 hPa East 19.5 km/h 20.9 km/h 27% 0 mm 39.0 W/m2
17:57 33.8 °C 12.2 °C 999.9 hPa ENE 22.7 km/h 25.7 km/h 27% 0 mm 44.0 W/m2
18:08 33.7 °C 12.1 °C 999.9 hPa East 1.4 km/h 19.3 km/h 27% 0 mm 69.0 W/m2
18:19 32.4 °C 13.1 °C 1000.6 hPa South 27.4 km/h 41.8 km/h 31% 0 mm 77.0 W/m2
18:28 32.1 °C 13.3 °C 1000.2 hPa South 32 km/h 41.8 km/h 32% 0 mm 232.0 W/m2
20:17 29.9 °C 5.2 °C 1002.9 hPa SW 17.7 km/h 27.4 km/h 21% 0 mm 0.0 W/m2
20:39 29.1 °C 7.1 °C 1002.9 hPa WSW 14.3 km/h 25.7 km/h 25% 0 mm 0.0 W/m2
20:47 28.4 °C 7.6 °C 1003.3 hPa SSW 16.3 km/h 20.9 km/h 27% 0 mm 0.0 W/m2
21:06 28.2 °C 7.4 °C 1003.6 hPa Calm     27% 0 mm 0.0 W/m2
21:11 28.2 °C 7.4 °C 1003.6 hPa Calm     27% 0 mm 0.0 W/m2
21:22 28.3 °C 7 °C 1003.6 hPa SSW 17.7 km/h 19.3 km/h 26% 0 mm 0.0 W/m2
21:27 28.4 °C 7 °C 1003.6 hPa SSW 17.7 km/h 19.3 km/h 26% 0 mm 0.0 W/m2
21:50 28.5 °C 7.1 °C 1003.9 hPa SSW 7.9 km/h 17.7 km/h 26% 0 mm 0.0 W/m2
22:05 28.3 °C 7.5 °C 1003.9 hPa South 19.5 km/h 19.5 km/h 27% 0 mm 0.0 W/m2
22:13 27.8 °C 8.1 °C 1004.3 hPa South 16.3 km/h 20.9 km/h 29% 0 mm 0.0 W/m2
22:28 27.4 °C 8.3 °C 1004.3 hPa SSW 20.9 km/h 22.5 km/h 30% 0 mm 0.0 W/m2
22:49 27 °C 7.9 °C 1004.3 hPa South 19.5 km/h 22.5 km/h 30% 0 mm 0.0 W/m2
22:58 26.9 °C 7.4 °C 1004.3 hPa South 24.1 km/h 25.7 km/h 29% 0 mm 0.0 W/m2
23:06 26.7 °C 7.7 °C 1004.6 hPa South 22.7 km/h 25.7 km/h 30% 0 mm 0.0 W/m2
Canyon Roadhouse, Fishriver Canyon, Namibia
Compliments of Weather Underground - 2.25 mb